createdAt,value
2023-02-14T00:00:59.480Z,44.97
2023-02-14T00:03:26.532Z,40.85
2023-02-14T00:05:53.390Z,37.92
2023-02-14T00:08:20.211Z,36.58
2023-02-14T00:10:46.985Z,37.15
2023-02-14T00:13:13.780Z,41.25
2023-02-14T00:15:40.637Z,42.20
2023-02-14T00:18:07.448Z,37.17
2023-02-14T00:20:34.250Z,37.10
2023-02-14T00:23:01.086Z,33.42
2023-02-14T00:25:27.919Z,39.67
2023-02-14T00:27:55.645Z,37.55
2023-02-14T00:30:22.708Z,37.83
2023-02-14T00:32:49.550Z,41.63
2023-02-14T00:35:16.425Z,37.97
2023-02-14T00:37:44.419Z,41.47
2023-02-14T00:40:11.835Z,35.33
2023-02-14T00:42:38.645Z,42.05
2023-02-14T00:45:05.681Z,41.70
2023-02-14T00:47:32.708Z,39.58
2023-02-14T00:50:03.081Z,45.85
2023-02-14T00:52:31.059Z,45.10
2023-02-14T00:54:57.934Z,43.92
2023-02-14T00:57:24.836Z,44.03
2023-02-14T00:59:51.664Z,43.97
2023-02-14T01:02:18.629Z,44.10
2023-02-14T01:04:45.525Z,45.25
2023-02-14T01:07:12.336Z,44.75
2023-02-14T01:09:39.162Z,47.80
2023-02-14T01:12:06.124Z,46.30
2023-02-14T01:14:32.957Z,48.03
2023-02-14T01:16:59.752Z,42.53
2023-02-14T01:19:26.578Z,53.05
2023-02-14T01:21:53.402Z,42.22
2023-02-14T01:24:20.264Z,47.35
2023-02-14T01:26:47.072Z,43.50
2023-02-14T01:29:13.917Z,43.92
2023-02-14T01:31:40.955Z,48.15
2023-02-14T01:34:07.838Z,43.10
2023-02-14T01:36:37.975Z,48.78
2023-02-14T01:39:07.903Z,41.03
2023-02-14T01:41:37.075Z,44.50
2023-02-14T01:44:14.927Z,46.92
2023-02-14T01:46:43.956Z,45.13
2023-02-14T01:49:18.709Z,49.10
2023-02-14T01:51:50.578Z,47.72
2023-02-14T01:54:19.626Z,47.40
2023-02-14T01:56:52.608Z,48.78
2023-02-14T01:59:22.441Z,47.92
2023-02-14T02:01:50.487Z,53.15
2023-02-14T02:04:22.205Z,47.75
2023-02-14T02:06:57.240Z,49.17
2023-02-14T02:09:43.758Z,53.10
2023-02-14T02:12:10.664Z,44.70
2023-02-14T02:14:37.736Z,52.33
2023-02-14T02:17:30.249Z,43.80
2023-02-14T02:20:24.887Z,41.70
2023-02-14T02:23:21.306Z,41.22
2023-02-14T02:26:20.325Z,49.78
2023-02-14T02:29:10.889Z,43.22
2023-02-14T02:32:17.006Z,43.88
2023-02-14T02:35:25.154Z,42.72
2023-02-14T02:38:00.789Z,45.92
2023-02-14T02:40:46.540Z,48.28
2023-02-14T02:43:35.232Z,44.25
2023-02-14T02:46:27.530Z,44.28
2023-02-14T02:49:03.332Z,39.33
2023-02-14T02:52:18.496Z,43.15
2023-02-14T02:54:52.617Z,48.15
2023-02-14T02:57:30.835Z,40.53
2023-02-14T02:59:59.469Z,41.97
2023-02-14T03:02:33.610Z,43.53
2023-02-14T03:05:04.758Z,44.45
2023-02-14T03:07:35.866Z,42.95
2023-02-14T03:10:06.647Z,43.45
2023-02-14T03:12:33.400Z,43.53
2023-02-14T03:15:22.659Z,41.80
2023-02-14T03:18:37.264Z,47.95
2023-02-14T03:21:12.211Z,45.35
2023-02-14T03:24:16.426Z,43.47
2023-02-14T03:27:01.268Z,41.35
2023-02-14T03:29:36.571Z,48.03
2023-02-14T03:32:12.806Z,49.50
2023-02-14T03:35:05.321Z,45.13
2023-02-14T03:37:53.674Z,41.67
2023-02-14T03:40:36.431Z,44.72
2023-02-14T03:43:11.059Z,43.67
2023-02-14T03:45:49.287Z,43.58
2023-02-14T03:48:17.881Z,41.30
2023-02-14T03:50:48.710Z,45.90
2023-02-14T03:53:19.625Z,45.35
2023-02-14T03:56:22.561Z,48.20
2023-02-14T03:58:53.890Z,47.50
2023-02-14T04:01:30.605Z,44.53
2023-02-14T04:03:59.126Z,40.97
2023-02-14T04:06:26.137Z,49.78
2023-02-14T04:08:53.101Z,42.90
2023-02-14T04:11:20.230Z,43.92
2023-02-14T04:13:47.083Z,42.92
2023-02-14T04:16:13.952Z,45.08
2023-02-14T04:18:59.348Z,38.53
2023-02-14T04:21:26.190Z,41.78
2023-02-14T04:23:52.956Z,42.63
2023-02-14T04:26:19.763Z,40.53
2023-02-14T04:28:46.614Z,41.03
2023-02-14T04:31:13.583Z,38.88
2023-02-14T04:33:40.526Z,41.78
2023-02-14T04:36:07.705Z,41.22
2023-02-14T04:38:34.681Z,42.38
2023-02-14T04:41:01.996Z,46.83
2023-02-14T04:43:29.134Z,38.25
2023-02-14T04:45:55.953Z,40.85
2023-02-14T04:48:22.935Z,41.22
2023-02-14T04:50:54.975Z,39.05
2023-02-14T04:53:22.523Z,40.10
2023-02-14T04:55:50.101Z,37.33
2023-02-14T04:58:17.535Z,39.17
2023-02-14T05:00:44.548Z,39.92
2023-02-14T05:03:11.447Z,45.03
2023-02-14T05:05:38.302Z,39.97
2023-02-14T05:08:05.147Z,45.20
2023-02-14T05:10:31.983Z,37.50
2023-02-14T05:12:58.784Z,38.20
2023-02-14T05:15:25.673Z,46.20
2023-02-14T05:17:52.516Z,42.05
2023-02-14T05:20:19.479Z,40.47
2023-02-14T05:22:46.445Z,38.63
2023-02-14T05:25:13.268Z,38.53
2023-02-14T05:27:40.117Z,40.22
2023-02-14T05:30:07.692Z,38.45
2023-02-14T05:32:34.536Z,39.45
2023-02-14T05:35:01.474Z,42.05
2023-02-14T05:37:28.587Z,44.60
2023-02-14T05:39:55.707Z,37.42
2023-02-14T05:42:22.549Z,44.53
2023-02-14T05:44:49.596Z,39.28
2023-02-14T05:47:16.520Z,43.30
2023-02-14T05:49:44.350Z,40.72
2023-02-14T05:52:11.176Z,50.35
2023-02-14T05:54:38.058Z,42.47
2023-02-14T05:57:04.881Z,39.58
2023-02-14T05:59:31.938Z,45.65
2023-02-14T06:01:59.198Z,52.33
2023-02-14T06:04:26.132Z,61.80
2023-02-14T06:06:52.976Z,80.93
2023-02-14T06:09:19.917Z,111.40
2023-02-14T06:11:46.824Z,82.03
2023-02-14T06:14:13.652Z,68.10
2023-02-14T06:16:40.541Z,104.85
2023-02-14T06:19:07.391Z,78.65
2023-02-14T06:21:34.369Z,70.97
2023-02-14T06:24:01.181Z,120.90
2023-02-14T06:26:28.440Z,47.35
2023-02-14T06:28:56.811Z,63.13
2023-02-14T06:31:24.203Z,56.13
2023-02-14T06:33:52.140Z,42.55
2023-02-14T06:36:19.645Z,40.35
2023-02-14T06:38:48.055Z,44.42
2023-02-14T06:41:17.106Z,39.45
2023-02-14T06:43:48.666Z,44.30
2023-02-14T06:46:17.168Z,38.88
2023-02-14T06:48:44.688Z,38.08
2023-02-14T06:51:12.207Z,40.25
2023-02-14T06:53:39.027Z,36.60
2023-02-14T06:56:06.500Z,40.28
2023-02-14T06:58:33.512Z,34.15
2023-02-14T07:01:00.847Z,38.88
2023-02-14T07:03:28.337Z,33.75
2023-02-14T07:05:57.801Z,36.97
2023-02-14T07:08:26.204Z,39.25
2023-02-14T07:10:58.626Z,36.63
2023-02-14T07:13:25.979Z,33.07
2023-02-14T07:15:52.845Z,37.67
2023-02-14T07:18:19.671Z,41.35
2023-02-14T07:20:46.604Z,38.47
2023-02-14T07:23:13.441Z,36.25
2023-02-14T07:25:40.971Z,35.90
2023-02-14T07:28:07.980Z,38.92
2023-02-14T07:30:34.879Z,36.53
2023-02-14T07:33:01.872Z,43.75
2023-02-14T07:35:28.698Z,39.97
2023-02-14T07:37:55.725Z,42.22
2023-02-14T07:40:23.011Z,48.40
2023-02-14T07:42:57.703Z,38.78
2023-02-14T07:45:25.577Z,39.80
2023-02-14T07:47:54.158Z,37.92
2023-02-14T07:50:22.662Z,46.00
2023-02-14T07:52:49.596Z,38.67
2023-02-14T07:55:16.472Z,40.90
2023-02-14T07:57:43.326Z,39.40
2023-02-14T08:00:10.720Z,44.20
2023-02-14T08:02:37.546Z,40.90
2023-02-14T08:05:04.695Z,38.25
2023-02-14T08:07:31.830Z,42.92
2023-02-14T08:09:58.680Z,38.28
2023-02-14T08:12:44.031Z,39.00
2023-02-14T08:15:29.634Z,41.45
2023-02-14T08:17:57.189Z,44.05
2023-02-14T08:20:24.054Z,40.38
2023-02-14T08:22:50.966Z,42.55
2023-02-14T08:25:17.949Z,42.67
2023-02-14T08:27:44.833Z,40.83
2023-02-14T08:30:12.063Z,43.65
2023-02-14T08:32:39.362Z,41.22
2023-02-14T08:35:07.059Z,43.63
2023-02-14T08:37:33.855Z,38.83
2023-02-14T08:40:00.790Z,38.60
2023-02-14T08:42:27.708Z,43.20
2023-02-14T08:44:54.532Z,43.70
2023-02-14T08:47:21.834Z,40.50
2023-02-14T08:49:48.730Z,40.50
2023-02-14T08:52:15.815Z,42.28
2023-02-14T08:54:42.740Z,39.35
2023-02-14T08:57:09.571Z,39.50
2023-02-14T08:59:36.674Z,38.13
2023-02-14T09:02:03.622Z,36.65
2023-02-14T09:04:30.606Z,37.08
2023-02-14T09:06:57.474Z,42.90
2023-02-14T09:09:24.389Z,38.63
2023-02-14T09:11:51.217Z,42.90
2023-02-14T09:14:20.246Z,48.05
2023-02-14T09:16:47.294Z,38.33
2023-02-14T09:19:14.904Z,44.50
2023-02-14T09:21:41.833Z,38.88
2023-02-14T09:24:08.729Z,37.47
2023-02-14T09:26:37.122Z,41.22
2023-02-14T09:29:04.071Z,40.20
2023-02-14T09:31:31.016Z,37.28
2023-02-14T09:34:16.419Z,42.42
2023-02-14T09:36:45.733Z,39.58
2023-02-14T09:39:12.717Z,38.47
2023-02-14T09:42:07.886Z,37.75
2023-02-14T09:44:56.419Z,38.50
2023-02-14T09:47:35.375Z,35.95
2023-02-14T09:50:06.059Z,34.90
2023-02-14T09:52:33.610Z,35.58
2023-02-14T09:55:02.763Z,42.20
2023-02-14T09:57:57.193Z,36.00
2023-02-14T10:00:45.441Z,42.70
2023-02-14T10:03:33.417Z,40.72
2023-02-14T10:06:10.300Z,38.08
2023-02-14T10:09:15.844Z,36.88
2023-02-14T10:11:46.154Z,38.08
2023-02-14T10:14:23.344Z,32.97
2023-02-14T10:16:56.602Z,36.92
2023-02-14T10:21:57.866Z,43.45
2023-02-14T10:24:40.325Z,36.97
2023-02-14T10:27:42.460Z,38.92
2023-02-14T10:30:15.596Z,36.25
2023-02-14T10:32:46.756Z,36.55
2023-02-14T10:35:36.927Z,35.70
2023-02-14T10:38:42.432Z,39.95
2023-02-14T10:41:37.453Z,42.20
2023-02-14T10:44:13.693Z,36.40
2023-02-14T10:47:01.250Z,41.65
2023-02-14T10:49:44.433Z,36.30
2023-02-14T10:52:17.128Z,36.75
2023-02-14T10:54:52.662Z,39.42
2023-02-14T10:57:33.048Z,40.05
2023-02-14T11:00:07.216Z,38.50
2023-02-14T11:02:41.992Z,34.80
2023-02-14T11:05:36.478Z,39.08
2023-02-14T11:08:31.156Z,37.65
2023-02-14T11:11:19.166Z,36.55
2023-02-14T11:13:46.813Z,37.60
2023-02-14T11:16:32.602Z,35.03
2023-02-14T11:19:14.519Z,36.92
2023-02-14T11:21:44.613Z,37.33
2023-02-14T11:24:31.983Z,36.50
2023-02-14T11:27:22.556Z,39.65
2023-02-14T11:29:52.990Z,37.08
2023-02-14T11:32:28.400Z,44.50
2023-02-14T11:35:27.634Z,39.00
2023-02-14T11:37:57.097Z,37.03
2023-02-14T11:40:31.339Z,37.53
2023-02-14T11:43:19.046Z,41.80
2023-02-14T11:45:48.334Z,41.33
2023-02-14T11:48:37.696Z,37.88
2023-02-14T11:51:16.918Z,37.88
2023-02-14T11:53:46.781Z,38.85
2023-02-14T11:56:15.837Z,47.78
2023-02-14T11:58:56.915Z,42.20
2023-02-14T12:01:31.143Z,42.22
2023-02-14T12:04:01.815Z,38.25
2023-02-14T12:06:34.970Z,39.90
2023-02-14T12:09:23.064Z,44.80
2023-02-14T12:11:58.357Z,45.55
2023-02-14T12:14:31.841Z,43.22
2023-02-14T12:17:07.226Z,47.53
2023-02-14T12:20:04.218Z,39.45
2023-02-14T12:22:39.820Z,39.78
2023-02-14T12:25:16.955Z,40.88
2023-02-14T12:28:04.233Z,37.75
2023-02-14T12:30:35.227Z,41.05
2023-02-14T12:33:02.249Z,41.90
2023-02-14T12:36:13.651Z,42.20
2023-02-14T12:38:54.936Z,38.10
2023-02-14T12:41:39.838Z,43.67
2023-02-14T12:44:24.773Z,39.38
2023-02-14T12:47:24.912Z,41.05
2023-02-14T12:50:00.193Z,53.45
2023-02-14T12:52:56.723Z,41.15
2023-02-14T12:55:35.881Z,42.45
2023-02-14T12:58:30.198Z,42.97
2023-02-14T13:01:28.748Z,39.85
2023-02-14T13:04:33.657Z,39.78
2023-02-14T13:07:38.259Z,41.30
2023-02-14T13:10:11.645Z,35.70
2023-02-14T13:13:02.096Z,37.47
2023-02-14T13:16:11.342Z,37.80
2023-02-14T13:18:41.241Z,45.13
2023-02-14T13:21:12.119Z,36.55
2023-02-14T13:23:42.508Z,40.80
2023-02-14T13:26:18.069Z,43.17
2023-02-14T13:29:09.611Z,40.40
2023-02-14T13:31:38.056Z,39.35
2023-02-14T13:34:27.470Z,38.20
2023-02-14T13:36:57.575Z,38.53
2023-02-14T13:39:41.957Z,30.83
2023-02-14T13:42:10.919Z,41.47
2023-02-14T13:44:49.423Z,39.13
2023-02-14T13:47:24.863Z,37.28
2023-02-14T13:49:56.827Z,40.08
2023-02-14T13:52:47.646Z,36.00
2023-02-14T13:55:21.423Z,42.55
2023-02-14T13:58:21.802Z,50.20
2023-02-14T14:00:50.446Z,45.13
2023-02-14T14:03:29.841Z,41.53
2023-02-14T14:06:08.634Z,37.10
2023-02-14T14:08:39.581Z,39.00
2023-02-14T14:11:34.118Z,38.13
2023-02-14T14:14:23.573Z,43.15
2023-02-14T14:16:58.851Z,35.20
2023-02-14T14:19:25.630Z,35.70
2023-02-14T14:22:12.006Z,40.47
2023-02-14T14:24:41.486Z,40.55
2023-02-14T14:27:35.879Z,38.35
2023-02-14T14:30:07.608Z,47.40
2023-02-14T14:32:37.317Z,37.75
2023-02-14T14:35:16.956Z,34.00
2023-02-14T14:37:52.293Z,38.72
2023-02-14T14:40:28.768Z,41.30
2023-02-14T14:43:00.777Z,41.50
2023-02-14T14:45:31.756Z,37.55
2023-02-14T14:48:03.196Z,37.60
2023-02-14T14:50:33.753Z,38.17
2023-02-14T14:53:37.860Z,37.70
2023-02-14T14:56:05.084Z,39.65
2023-02-14T14:58:42.079Z,46.72
2023-02-14T15:01:15.684Z,42.50
2023-02-14T15:03:42.689Z,39.20
2023-02-14T15:06:20.329Z,34.85
2023-02-14T15:08:48.665Z,34.70
2023-02-14T15:11:45.965Z,38.22
2023-02-14T15:14:25.196Z,38.33
2023-02-14T15:17:01.953Z,45.00
2023-02-14T15:19:37.059Z,37.03
2023-02-14T15:22:21.252Z,43.00
2023-02-14T15:24:48.508Z,38.85
2023-02-14T15:27:18.193Z,38.78
2023-02-14T15:30:04.588Z,37.75
2023-02-14T15:32:34.660Z,41.80
2023-02-14T15:35:04.118Z,37.20
2023-02-14T15:37:32.573Z,37.15
2023-02-14T15:40:00.006Z,44.20
2023-02-14T15:42:32.991Z,34.63
2023-02-14T15:45:27.953Z,37.05
2023-02-14T15:48:16.979Z,39.15
2023-02-14T15:50:52.958Z,38.97
2023-02-14T15:53:26.530Z,37.72
2023-02-14T15:55:54.590Z,38.28
2023-02-14T15:58:30.093Z,40.05
2023-02-14T16:00:57.097Z,36.95
2023-02-14T16:03:27.177Z,41.17
2023-02-14T16:05:57.523Z,35.20
2023-02-14T16:08:55.204Z,41.53
2023-02-14T16:11:37.253Z,45.50
2023-02-14T16:14:26.149Z,38.25
2023-02-14T16:17:00.250Z,64.82
2023-02-14T16:19:42.495Z,70.20
2023-02-14T16:22:11.954Z,54.20
2023-02-14T16:24:39.553Z,44.15
2023-02-14T16:27:09.229Z,42.90
2023-02-14T16:29:36.544Z,40.70
2023-02-14T16:32:18.940Z,42.53
2023-02-14T16:34:47.462Z,41.53
2023-02-14T16:37:33.989Z,44.45
2023-02-14T16:40:01.910Z,42.53
2023-02-14T16:42:28.838Z,44.55
2023-02-14T16:44:55.872Z,53.08
2023-02-14T16:47:22.890Z,43.67
2023-02-14T16:49:50.829Z,46.17
2023-02-14T16:52:23.428Z,43.65
2023-02-14T16:54:50.944Z,38.90
2023-02-14T16:57:30.330Z,43.45
2023-02-14T16:59:57.280Z,40.85
2023-02-14T17:02:28.262Z,47.72
2023-02-14T17:04:55.989Z,42.13
2023-02-14T17:07:23.484Z,43.92
2023-02-14T17:09:55.541Z,44.75
2023-02-14T17:12:27.372Z,53.80
2023-02-14T17:14:57.967Z,47.67
2023-02-14T17:17:25.903Z,45.92
2023-02-14T17:19:53.206Z,44.92
2023-02-14T17:22:20.452Z,44.78
2023-02-14T17:24:47.312Z,53.15
2023-02-14T17:27:14.422Z,49.55
2023-02-14T17:29:41.845Z,48.72
2023-02-14T17:32:12.842Z,45.50
2023-02-14T17:34:40.921Z,42.70
2023-02-14T17:37:08.126Z,45.10
2023-02-14T17:39:35.032Z,48.00
2023-02-14T17:42:03.387Z,48.75
2023-02-14T17:44:32.462Z,53.00
2023-02-14T17:46:59.367Z,51.33
2023-02-14T17:49:26.757Z,52.35
2023-02-14T17:51:53.672Z,48.58
2023-02-14T17:54:20.754Z,53.28
2023-02-14T17:56:47.654Z,54.78
2023-02-14T17:59:14.644Z,60.25
2023-02-14T18:01:41.866Z,49.58
2023-02-14T18:04:08.812Z,53.08
2023-02-14T18:06:36.366Z,53.05
2023-02-14T18:09:06.703Z,49.10
2023-02-14T18:11:33.631Z,49.15
2023-02-14T18:14:01.823Z,52.30
2023-02-14T18:16:28.924Z,44.70
2023-02-14T18:18:56.047Z,45.70
2023-02-14T18:21:24.484Z,54.15
2023-02-14T18:23:51.956Z,49.25
2023-02-14T18:26:19.608Z,50.55
2023-02-14T18:28:46.942Z,52.35
2023-02-14T18:31:16.806Z,50.53
2023-02-14T18:33:48.169Z,46.70
2023-02-14T18:36:18.490Z,49.70
2023-02-14T18:38:47.482Z,56.75
2023-02-14T18:41:19.814Z,58.40
2023-02-14T18:43:47.384Z,51.37
2023-02-14T18:46:19.579Z,53.28
2023-02-14T18:48:46.852Z,51.08
2023-02-14T18:51:16.967Z,48.00
2023-02-14T18:53:45.448Z,50.63
2023-02-14T18:56:18.148Z,50.95
2023-02-14T18:58:48.067Z,54.83
2023-02-14T19:01:20.897Z,56.35
2023-02-14T19:03:52.887Z,54.97
2023-02-14T19:06:20.738Z,50.63
2023-02-14T19:08:48.383Z,55.63
2023-02-14T19:11:21.967Z,52.65
2023-02-14T19:13:52.256Z,57.08
2023-02-14T19:16:28.127Z,58.85
2023-02-14T19:18:55.638Z,61.70
2023-02-14T19:21:25.207Z,59.95
2023-02-14T19:23:53.829Z,59.97
2023-02-14T19:26:29.931Z,56.58
2023-02-14T19:28:58.589Z,55.90
2023-02-14T19:31:26.605Z,71.45
2023-02-14T19:33:53.739Z,62.65
2023-02-14T19:36:22.860Z,60.47
2023-02-14T19:38:51.582Z,60.63
2023-02-14T19:41:24.119Z,55.22
2023-02-14T19:43:52.580Z,61.38
2023-02-14T19:46:21.324Z,57.38
2023-02-14T19:48:48.963Z,60.35
2023-02-14T19:51:27.752Z,58.88
2023-02-14T19:53:55.856Z,57.92
2023-02-14T19:56:26.475Z,56.28
2023-02-14T19:58:54.017Z,63.10
2023-02-14T23:54:46.154Z,79.57
2023-02-14T23:57:13.028Z,75.65
2023-02-14T23:59:39.847Z,74.65
